Larsen Bay, Alaska
Current Conditions -  °F | °C
As of 11:56 AM on Tuesday 21 Oct 2014 (Local Time) from PAKH Reporting Station
Clear Clear  
Wind Chill: 31°   Ceiling: Unl
Heat Index: 37°   Visibility: 10mi
Dew Point: 31°   Wind: 7mph
Humidity: 80%   Direction: 30°NNE
Pressure: 29.26"   Gusts: NA
Location:  57.53°N, 153.99°W
Report Text: PAKH 211956Z AUTO 03006KT 10SM CLR 03/M01 A2926 RMK AO2 TSNO T00271005 SLP910 $
Loading
Personal Weather Stations






























Interactive Weather Map
Tropical Storm Tracking
New forecast layout! Learn more

10-Day Weather Forecast

Advertisements
Track Severe Weather on mobile